Sepulveda, California
Current Conditions -  °F | °C
As of 3:53 AM on Thursday 29 Jan 2015 (Local Time) from KBUR Reporting Station
Clear Clear  
Wind Chill: 60°   Ceiling: Unl
Heat Index: 60°   Visibility: 10mi
Dew Point: 40°   Wind: 5mph
Humidity: 47%   Direction: 310°NW
Pressure: 30.03"   Gusts: NA
Location:  34.1618°N, 118.281°W
Report Text: KBUR 291153Z 31004KT 10SM CLR 16/04 A3003 RMK AO2 SLP161 T01560044 10178 20150 58004
Loading
Personal Weather Stations






























Interactive Weather Map New forecast layout! Learn more

10-Day Weather Forecast

Advertisements
Track Severe Weather on mobile